Oldbury, United Kingdom
Current Conditions -  °F | °C
As of 9:50 PM on Wednesday 28 Jan 2015 (Local Time) from EGBB Reporting Station
Light Rain Light Rain  
Wind Chill: -3°   Ceiling: 4100
Heat Index:   Visibility: 6mi
Dew Point:   Wind: 13mph
Humidity: 87%   Direction: 230°SW
Pressure: 29.44"   Gusts: NA
Location:  52.5°N, 2.02°W
Report Text: EGBB 282150Z AUTO 23011KT 210V270 9999 -RA FEW010/// SCT029/// BKN041/// 02/M00 Q0997
Loading
Personal Weather Stations






























Interactive Weather Map New forecast layout! Learn more

10-Day Weather Forecast

Advertisements
Track Severe Weather on mobile